sensor_id;sensor_type;location;lat;lon;timestamp;temperature;humidity
16846;DHT22;8539;53.188;8.696;2023-02-28T00:00:22;2.40;99.90
16846;DHT22;8539;53.188;8.696;2023-02-28T00:02:49;2.40;99.90
16846;DHT22;8539;53.188;8.696;2023-02-28T00:05:18;2.60;99.90
16846;DHT22;8539;53.188;8.696;2023-02-28T00:07:45;2.40;99.90
16846;DHT22;8539;53.188;8.696;2023-02-28T00:10:14;2.40;99.90
16846;DHT22;8539;53.188;8.696;2023-02-28T00:12:41;2.70;99.90
16846;DHT22;8539;53.188;8.696;2023-02-28T00:15:10;2.40;99.90
16846;DHT22;8539;53.188;8.696;2023-02-28T00:17:37;2.40;99.90
16846;DHT22;8539;53.188;8.696;2023-02-28T00:20:04;2.40;99.90
16846;DHT22;8539;53.188;8.696;2023-02-28T00:22:34;2.40;99.90
16846;DHT22;8539;53.188;8.696;2023-02-28T00:25:00;2.50;99.90
16846;DHT22;8539;53.188;8.696;2023-02-28T00:27:26;2.50;99.90
16846;DHT22;8539;53.188;8.696;2023-02-28T00:29:52;2.60;99.90
16846;DHT22;8539;53.188;8.696;2023-02-28T00:32:19;2.60;99.90
16846;DHT22;8539;53.188;8.696;2023-02-28T00:34:45;2.50;99.90
16846;DHT22;8539;53.188;8.696;2023-02-28T00:37:12;2.50;99.90
16846;DHT22;8539;53.188;8.696;2023-02-28T00:39:38;2.80;99.90
16846;DHT22;8539;53.188;8.696;2023-02-28T00:42:05;2.50;99.90
16846;DHT22;8539;53.188;8.696;2023-02-28T00:44:32;2.50;99.90
16846;DHT22;8539;53.188;8.696;2023-02-28T00:46:59;2.50;99.90
16846;DHT22;8539;53.188;8.696;2023-02-28T00:49:26;2.50;99.90
16846;DHT22;8539;53.188;8.696;2023-02-28T00:51:53;2.50;99.90
16846;DHT22;8539;53.188;8.696;2023-02-28T00:54:19;2.50;99.90
16846;DHT22;8539;53.188;8.696;2023-02-28T00:56:46;2.50;99.90
16846;DHT22;8539;53.188;8.696;2023-02-28T00:59:13;2.50;99.90
16846;DHT22;8539;53.188;8.696;2023-02-28T01:01:39;2.50;99.90
16846;DHT22;8539;53.188;8.696;2023-02-28T01:04:05;2.50;99.90
16846;DHT22;8539;53.188;8.696;2023-02-28T01:06:32;2.50;99.90
16846;DHT22;8539;53.188;8.696;2023-02-28T01:08:59;2.50;99.90
16846;DHT22;8539;53.188;8.696;2023-02-28T01:11:25;2.50;99.90
16846;DHT22;8539;53.188;8.696;2023-02-28T01:13:52;2.60;99.90
16846;DHT22;8539;53.188;8.696;2023-02-28T01:16:18;2.60;99.90
16846;DHT22;8539;53.188;8.696;2023-02-28T01:18:44;2.50;99.90
16846;DHT22;8539;53.188;8.696;2023-02-28T01:21:16;2.50;99.90
16846;DHT22;8539;53.188;8.696;2023-02-28T01:23:43;2.50;99.90
16846;DHT22;8539;53.188;8.696;2023-02-28T01:26:14;2.50;99.90
16846;DHT22;8539;53.188;8.696;2023-02-28T01:28:41;2.50;99.90
16846;DHT22;8539;53.188;8.696;2023-02-28T01:31:12;2.50;99.90
16846;DHT22;8539;53.188;8.696;2023-02-28T01:33:39;2.40;99.90
16846;DHT22;8539;53.188;8.696;2023-02-28T01:36:17;2.40;99.90
16846;DHT22;8539;53.188;8.696;2023-02-28T01:38:44;2.40;99.90
16846;DHT22;8539;53.188;8.696;2023-02-28T01:41:17;2.40;99.90
16846;DHT22;8539;53.188;8.696;2023-02-28T01:46:11;2.40;99.90
16846;DHT22;8539;53.188;8.696;2023-02-28T01:48:46;2.40;99.90
16846;DHT22;8539;53.188;8.696;2023-02-28T01:51:19;2.50;99.90
16846;DHT22;8539;53.188;8.696;2023-02-28T01:53:49;2.50;99.90
16846;DHT22;8539;53.188;8.696;2023-02-28T01:56:20;2.50;99.90
16846;DHT22;8539;53.188;8.696;2023-02-28T01:58:49;2.50;99.90
16846;DHT22;8539;53.188;8.696;2023-02-28T02:01:17;2.50;99.90
16846;DHT22;8539;53.188;8.696;2023-02-28T02:03:49;2.50;99.90
16846;DHT22;8539;53.188;8.696;2023-02-28T02:06:22;2.50;99.90
16846;DHT22;8539;53.188;8.696;2023-02-28T02:08:49;2.50;99.90
16846;DHT22;8539;53.188;8.696;2023-02-28T02:11:18;2.50;99.90
16846;DHT22;8539;53.188;8.696;2023-02-28T02:30:37;2.50;99.90
16846;DHT22;8539;53.188;8.696;2023-02-28T02:43:53;2.40;99.90
16846;DHT22;8539;53.188;8.696;2023-02-28T02:46:44;2.40;99.90
16846;DHT22;8539;53.188;8.696;2023-02-28T02:49:17;2.40;99.90
16846;DHT22;8539;53.188;8.696;2023-02-28T02:51:47;2.40;99.90
16846;DHT22;8539;53.188;8.696;2023-02-28T02:54:22;2.40;99.90
16846;DHT22;8539;53.188;8.696;2023-02-28T02:56:50;2.50;99.90
16846;DHT22;8539;53.188;8.696;2023-02-28T02:59:19;2.40;99.90
16846;DHT22;8539;53.188;8.696;2023-02-28T03:01:52;2.40;99.90
16846;DHT22;8539;53.188;8.696;2023-02-28T03:04:21;2.40;99.90
16846;DHT22;8539;53.188;8.696;2023-02-28T03:06:51;2.40;99.90
16846;DHT22;8539;53.188;8.696;2023-02-28T03:09:24;2.40;99.90
16846;DHT22;8539;53.188;8.696;2023-02-28T03:11:52;2.40;99.90
16846;DHT22;8539;53.188;8.696;2023-02-28T03:14:45;2.30;99.90
16846;DHT22;8539;53.188;8.696;2023-02-28T03:22:51;2.20;99.90
16846;DHT22;8539;53.188;8.696;2023-02-28T03:26:02;2.20;99.90
16846;DHT22;8539;53.188;8.696;2023-02-28T03:34:10;2.10;99.90
16846;DHT22;8539;53.188;8.696;2023-02-28T03:36:45;2.10;99.90
16846;DHT22;8539;53.188;8.696;2023-02-28T03:39:19;2.10;99.90
16846;DHT22;8539;53.188;8.696;2023-02-28T03:41:52;2.00;99.90
16846;DHT22;8539;53.188;8.696;2023-02-28T03:44:32;2.20;99.90
16846;DHT22;8539;53.188;8.696;2023-02-28T03:47:04;2.10;99.90
16846;DHT22;8539;53.188;8.696;2023-02-28T03:49:36;2.10;99.90
16846;DHT22;8539;53.188;8.696;2023-02-28T03:52:06;2.10;99.90
16846;DHT22;8539;53.188;8.696;2023-02-28T03:54:38;2.10;99.90
16846;DHT22;8539;53.188;8.696;2023-02-28T03:57:33;2.10;99.90
16846;DHT22;8539;53.188;8.696;2023-02-28T04:00:04;2.10;99.90
16846;DHT22;8539;53.188;8.696;2023-02-28T04:02:32;2.00;99.90
16846;DHT22;8539;53.188;8.696;2023-02-28T04:05:00;2.00;99.90
16846;DHT22;8539;53.188;8.696;2023-02-28T04:07:29;2.10;99.90
16846;DHT22;8539;53.188;8.696;2023-02-28T04:09:56;2.00;99.90
16846;DHT22;8539;53.188;8.696;2023-02-28T04:12:22;2.00;99.90
16846;DHT22;8539;53.188;8.696;2023-02-28T04:14:49;2.00;99.90
16846;DHT22;8539;53.188;8.696;2023-02-28T04:17:16;2.00;99.90
16846;DHT22;8539;53.188;8.696;2023-02-28T04:19:42;2.00;99.90
16846;DHT22;8539;53.188;8.696;2023-02-28T04:22:09;2.00;99.90
16846;DHT22;8539;53.188;8.696;2023-02-28T04:24:35;2.20;99.90
16846;DHT22;8539;53.188;8.696;2023-02-28T04:27:02;2.00;99.90
16846;DHT22;8539;53.188;8.696;2023-02-28T04:29:32;2.00;99.90
16846;DHT22;8539;53.188;8.696;2023-02-28T04:31:58;1.90;99.90
16846;DHT22;8539;53.188;8.696;2023-02-28T04:34:26;1.90;99.90
16846;DHT22;8539;53.188;8.696;2023-02-28T04:36:53;1.90;99.90
16846;DHT22;8539;53.188;8.696;2023-02-28T04:39:21;1.90;99.90
16846;DHT22;8539;53.188;8.696;2023-02-28T04:41:47;1.90;99.90
16846;DHT22;8539;53.188;8.696;2023-02-28T04:44:14;1.90;99.90
16846;DHT22;8539;53.188;8.696;2023-02-28T04:46:41;1.90;99.90
16846;DHT22;8539;53.188;8.696;2023-02-28T04:49:10;1.90;99.90
16846;DHT22;8539;53.188;8.696;2023-02-28T04:51:37;1.90;99.90
16846;DHT22;8539;53.188;8.696;2023-02-28T04:54:03;1.90;99.90
16846;DHT22;8539;53.188;8.696;2023-02-28T04:56:29;1.80;99.90
16846;DHT22;8539;53.188;8.696;2023-02-28T04:58:55;1.90;99.90
16846;DHT22;8539;53.188;8.696;2023-02-28T05:01:40;1.80;99.90
16846;DHT22;8539;53.188;8.696;2023-02-28T05:04:06;1.90;99.90
16846;DHT22;8539;53.188;8.696;2023-02-28T05:06:33;1.90;99.90
16846;DHT22;8539;53.188;8.696;2023-02-28T05:08:59;1.80;99.90
16846;DHT22;8539;53.188;8.696;2023-02-28T05:11:31;1.80;99.90
16846;DHT22;8539;53.188;8.696;2023-02-28T05:14:01;1.80;99.90
16846;DHT22;8539;53.188;8.696;2023-02-28T05:16:27;1.80;99.90
16846;DHT22;8539;53.188;8.696;2023-02-28T05:18:53;1.70;99.90
16846;DHT22;8539;53.188;8.696;2023-02-28T05:21:30;1.70;99.90
16846;DHT22;8539;53.188;8.696;2023-02-28T05:23:58;1.70;99.90
16846;DHT22;8539;53.188;8.696;2023-02-28T05:26:26;1.70;99.90
16846;DHT22;8539;53.188;8.696;2023-02-28T05:28:52;1.70;99.90
16846;DHT22;8539;53.188;8.696;2023-02-28T05:31:18;1.70;99.90
16846;DHT22;8539;53.188;8.696;2023-02-28T05:33:45;1.70;99.90
16846;DHT22;8539;53.188;8.696;2023-02-28T05:36:11;1.70;99.90
16846;DHT22;8539;53.188;8.696;2023-02-28T05:38:37;1.70;99.90
16846;DHT22;8539;53.188;8.696;2023-02-28T05:41:08;1.70;99.90
16846;DHT22;8539;53.188;8.696;2023-02-28T05:43:35;1.70;99.90
16846;DHT22;8539;53.188;8.696;2023-02-28T05:46:03;1.70;99.90
16846;DHT22;8539;53.188;8.696;2023-02-28T05:48:29;1.70;99.90
16846;DHT22;8539;53.188;8.696;2023-02-28T05:50:57;1.70;99.90
16846;DHT22;8539;53.188;8.696;2023-02-28T05:53:23;1.70;99.90
16846;DHT22;8539;53.188;8.696;2023-02-28T05:55:49;1.60;99.90
16846;DHT22;8539;53.188;8.696;2023-02-28T05:58:15;1.60;99.90
16846;DHT22;8539;53.188;8.696;2023-02-28T06:00:41;1.60;99.90
16846;DHT22;8539;53.188;8.696;2023-02-28T06:03:07;1.60;99.90
16846;DHT22;8539;53.188;8.696;2023-02-28T06:05:33;1.50;99.90
16846;DHT22;8539;53.188;8.696;2023-02-28T06:07:59;1.40;99.90
16846;DHT22;8539;53.188;8.696;2023-02-28T06:10:25;1.30;99.90
16846;DHT22;8539;53.188;8.696;2023-02-28T06:12:51;1.50;99.90
16846;DHT22;8539;53.188;8.696;2023-02-28T06:15:17;1.30;99.90
16846;DHT22;8539;53.188;8.696;2023-02-28T06:17:44;1.20;99.90
16846;DHT22;8539;53.188;8.696;2023-02-28T06:20:11;1.20;99.90
16846;DHT22;8539;53.188;8.696;2023-02-28T06:22:40;1.20;99.90
16846;DHT22;8539;53.188;8.696;2023-02-28T06:25:07;1.10;99.90
16846;DHT22;8539;53.188;8.696;2023-02-28T06:27:34;1.00;99.90
16846;DHT22;8539;53.188;8.696;2023-02-28T06:30:00;1.00;99.90
16846;DHT22;8539;53.188;8.696;2023-02-28T06:32:26;0.90;99.90
16846;DHT22;8539;53.188;8.696;2023-02-28T06:34:52;0.90;99.90
16846;DHT22;8539;53.188;8.696;2023-02-28T06:37:19;0.80;99.90
16846;DHT22;8539;53.188;8.696;2023-02-28T06:39:45;0.80;99.90
16846;DHT22;8539;53.188;8.696;2023-02-28T06:42:11;0.80;99.90
16846;DHT22;8539;53.188;8.696;2023-02-28T06:44:38;0.80;99.90
16846;DHT22;8539;53.188;8.696;2023-02-28T06:47:05;0.80;99.90
16846;DHT22;8539;53.188;8.696;2023-02-28T06:49:33;0.80;99.90
16846;DHT22;8539;53.188;8.696;2023-02-28T06:51:59;0.80;99.90
16846;DHT22;8539;53.188;8.696;2023-02-28T06:54:26;0.80;99.90
16846;DHT22;8539;53.188;8.696;2023-02-28T06:56:52;0.80;99.90
16846;DHT22;8539;53.188;8.696;2023-02-28T06:59:20;0.80;99.90
16846;DHT22;8539;53.188;8.696;2023-02-28T07:01:46;0.80;99.90
16846;DHT22;8539;53.188;8.696;2023-02-28T07:04:12;0.80;99.90
16846;DHT22;8539;53.188;8.696;2023-02-28T07:06:39;0.80;99.90
16846;DHT22;8539;53.188;8.696;2023-02-28T07:09:05;0.80;99.90
16846;DHT22;8539;53.188;8.696;2023-02-28T07:11:31;0.80;99.90
16846;DHT22;8539;53.188;8.696;2023-02-28T07:13:57;0.90;99.90
16846;DHT22;8539;53.188;8.696;2023-02-28T07:16:25;0.90;99.90
16846;DHT22;8539;53.188;8.696;2023-02-28T07:18:54;0.90;99.90
16846;DHT22;8539;53.188;8.696;2023-02-28T07:21:21;0.90;99.90
16846;DHT22;8539;53.188;8.696;2023-02-28T07:23:47;1.00;99.90
16846;DHT22;8539;53.188;8.696;2023-02-28T07:26:16;1.10;99.90
16846;DHT22;8539;53.188;8.696;2023-02-28T07:28:44;1.20;99.90
16846;DHT22;8539;53.188;8.696;2023-02-28T07:31:11;1.80;99.90
16846;DHT22;8539;53.188;8.696;2023-02-28T07:33:38;2.70;99.90
16846;DHT22;8539;53.188;8.696;2023-02-28T07:36:07;3.80;99.90
16846;DHT22;8539;53.188;8.696;2023-02-28T07:38:34;4.90;99.90
16846;DHT22;8539;53.188;8.696;2023-02-28T07:41:01;6.00;99.90
16846;DHT22;8539;53.188;8.696;2023-02-28T07:43:31;7.00;99.90
16846;DHT22;8539;53.188;8.696;2023-02-28T07:46:05;7.90;99.90
16846;DHT22;8539;53.188;8.696;2023-02-28T07:48:32;8.60;99.90
16846;DHT22;8539;53.188;8.696;2023-02-28T07:51:00;8.90;99.90
16846;DHT22;8539;53.188;8.696;2023-02-28T07:53:27;8.70;99.90
16846;DHT22;8539;53.188;8.696;2023-02-28T07:55:58;8.10;99.90
16846;DHT22;8539;53.188;8.696;2023-02-28T07:58:25;7.40;99.90
16846;DHT22;8539;53.188;8.696;2023-02-28T08:00:51;6.80;99.90
16846;DHT22;8539;53.188;8.696;2023-02-28T08:03:19;6.20;99.90
16846;DHT22;8539;53.188;8.696;2023-02-28T08:05:46;5.70;99.90
16846;DHT22;8539;53.188;8.696;2023-02-28T08:08:12;5.50;99.90
16846;DHT22;8539;53.188;8.696;2023-02-28T08:10:38;5.80;99.90
16846;DHT22;8539;53.188;8.696;2023-02-28T08:13:04;6.00;99.90
16846;DHT22;8539;53.188;8.696;2023-02-28T08:15:30;6.10;99.90
16846;DHT22;8539;53.188;8.696;2023-02-28T08:17:57;6.00;99.90
16846;DHT22;8539;53.188;8.696;2023-02-28T08:20:24;5.70;99.90
16846;DHT22;8539;53.188;8.696;2023-02-28T08:22:51;5.50;99.90
16846;DHT22;8539;53.188;8.696;2023-02-28T08:25:17;5.30;99.90
16846;DHT22;8539;53.188;8.696;2023-02-28T08:27:43;5.40;99.90
16846;DHT22;8539;53.188;8.696;2023-02-28T08:30:11;5.40;99.90
16846;DHT22;8539;53.188;8.696;2023-02-28T08:32:37;5.80;99.90
16846;DHT22;8539;53.188;8.696;2023-02-28T08:35:03;6.00;99.90
16846;DHT22;8539;53.188;8.696;2023-02-28T08:37:30;6.10;99.90
16846;DHT22;8539;53.188;8.696;2023-02-28T08:39:56;6.20;99.90
16846;DHT22;8539;53.188;8.696;2023-02-28T08:42:23;6.10;99.90
16846;DHT22;8539;53.188;8.696;2023-02-28T08:44:49;6.30;99.90
16846;DHT22;8539;53.188;8.696;2023-02-28T08:47:15;6.40;99.90
16846;DHT22;8539;53.188;8.696;2023-02-28T08:49:41;6.60;99.90
16846;DHT22;8539;53.188;8.696;2023-02-28T08:52:07;6.90;99.90
16846;DHT22;8539;53.188;8.696;2023-02-28T08:54:35;7.20;99.90
16846;DHT22;8539;53.188;8.696;2023-02-28T08:57:02;7.50;99.90
16846;DHT22;8539;53.188;8.696;2023-02-28T08:59:29;7.90;99.90
16846;DHT22;8539;53.188;8.696;2023-02-28T09:01:55;8.00;99.90
16846;DHT22;8539;53.188;8.696;2023-02-28T09:04:21;8.20;99.90
16846;DHT22;8539;53.188;8.696;2023-02-28T09:06:48;8.50;99.90
16846;DHT22;8539;53.188;8.696;2023-02-28T09:09:15;9.00;99.90
16846;DHT22;8539;53.188;8.696;2023-02-28T09:11:41;9.20;99.90
16846;DHT22;8539;53.188;8.696;2023-02-28T09:14:08;9.70;99.90
16846;DHT22;8539;53.188;8.696;2023-02-28T09:16:34;10.00;99.90
16846;DHT22;8539;53.188;8.696;2023-02-28T09:19:00;10.40;99.80
16846;DHT22;8539;53.188;8.696;2023-02-28T09:21:27;10.80;99.60
16846;DHT22;8539;53.188;8.696;2023-02-28T09:23:53;11.30;98.80
16846;DHT22;8539;53.188;8.696;2023-02-28T09:26:27;11.70;97.50
16846;DHT22;8539;53.188;8.696;2023-02-28T09:28:54;11.90;95.40
16846;DHT22;8539;53.188;8.696;2023-02-28T09:31:25;12.10;95.00
16846;DHT22;8539;53.188;8.696;2023-02-28T09:33:54;12.50;93.80
16846;DHT22;8539;53.188;8.696;2023-02-28T09:36:20;13.00;91.90
16846;DHT22;8539;53.188;8.696;2023-02-28T09:38:47;13.20;89.50
16846;DHT22;8539;53.188;8.696;2023-02-28T09:41:23;13.30;88.20
16846;DHT22;8539;53.188;8.696;2023-02-28T09:43:56;13.50;88.20
16846;DHT22;8539;53.188;8.696;2023-02-28T09:46:54;13.80;87.10
16846;DHT22;8539;53.188;8.696;2023-02-28T09:49:28;14.00;80.50
16846;DHT22;8539;53.188;8.696;2023-02-28T09:52:10;14.00;79.10
16846;DHT22;8539;53.188;8.696;2023-02-28T09:54:37;13.90;77.90
16846;DHT22;8539;53.188;8.696;2023-02-28T09:57:26;13.80;74.30
16846;DHT22;8539;53.188;8.696;2023-02-28T10:00:14;13.30;74.90
16846;DHT22;8539;53.188;8.696;2023-02-28T10:11:25;14.40;74.50
16846;DHT22;8539;53.188;8.696;2023-02-28T10:14:15;14.70;73.30
16846;DHT22;8539;53.188;8.696;2023-02-28T10:16:46;15.00;69.50
16846;DHT22;8539;53.188;8.696;2023-02-28T10:19:18;15.00;69.10
16846;DHT22;8539;53.188;8.696;2023-02-28T10:21:56;15.10;69.20
16846;DHT22;8539;53.188;8.696;2023-02-28T10:24:42;15.30;68.80
16846;DHT22;8539;53.188;8.696;2023-02-28T10:27:18;15.40;68.60
16846;DHT22;8539;53.188;8.696;2023-02-28T10:29:46;15.50;67.50
16846;DHT22;8539;53.188;8.696;2023-02-28T10:32:25;15.20;65.30
16846;DHT22;8539;53.188;8.696;2023-02-28T10:35:19;14.80;65.70
16846;DHT22;8539;53.188;8.696;2023-02-28T10:37:57;14.60;65.50
16846;DHT22;8539;53.188;8.696;2023-02-28T10:43:18;14.60;65.70
16846;DHT22;8539;53.188;8.696;2023-02-28T10:48:32;13.40;65.30
16846;DHT22;8539;53.188;8.696;2023-02-28T10:50:59;13.00;65.30
16846;DHT22;8539;53.188;8.696;2023-02-28T10:53:30;12.80;65.60
16846;DHT22;8539;53.188;8.696;2023-02-28T10:56:05;12.30;65.70
16846;DHT22;8539;53.188;8.696;2023-02-28T11:01:19;11.70;67.80
16846;DHT22;8539;53.188;8.696;2023-02-28T11:03:46;11.60;69.20
16846;DHT22;8539;53.188;8.696;2023-02-28T11:06:20;11.60;69.10
16846;DHT22;8539;53.188;8.696;2023-02-28T11:08:49;11.30;69.20
16846;DHT22;8539;53.188;8.696;2023-02-28T11:11:17;11.10;69.80
16846;DHT22;8539;53.188;8.696;2023-02-28T11:13:45;11.00;70.20
16846;DHT22;8539;53.188;8.696;2023-02-28T11:16:13;11.20;72.40
16846;DHT22;8539;53.188;8.696;2023-02-28T11:21:16;11.70;73.00
16846;DHT22;8539;53.188;8.696;2023-02-28T11:23:43;11.80;73.00
16846;DHT22;8539;53.188;8.696;2023-02-28T11:26:09;11.80;72.70
16846;DHT22;8539;53.188;8.696;2023-02-28T11:28:39;11.90;72.40
16846;DHT22;8539;53.188;8.696;2023-02-28T11:36:25;11.60;68.40
16846;DHT22;8539;53.188;8.696;2023-02-28T11:38:59;11.40;67.80
16846;DHT22;8539;53.188;8.696;2023-02-28T11:44:05;10.90;66.90
16846;DHT22;8539;53.188;8.696;2023-02-28T11:46:35;10.80;66.90
16846;DHT22;8539;53.188;8.696;2023-02-28T11:52:30;10.90;66.50
16846;DHT22;8539;53.188;8.696;2023-02-28T12:01:03;10.90;67.70
16846;DHT22;8539;53.188;8.696;2023-02-28T12:18:08;10.40;67.70
16846;DHT22;8539;53.188;8.696;2023-02-28T12:32:13;10.50;71.60
16846;DHT22;8539;53.188;8.696;2023-02-28T12:37:33;10.10;71.80
16846;DHT22;8539;53.188;8.696;2023-02-28T12:40:18;10.00;73.60
16846;DHT22;8539;53.188;8.696;2023-02-28T12:42:49;10.00;73.60
16846;DHT22;8539;53.188;8.696;2023-02-28T12:45:23;10.00;73.90
16846;DHT22;8539;53.188;8.696;2023-02-28T12:47:57;10.00;73.90
16846;DHT22;8539;53.188;8.696;2023-02-28T12:50:24;10.00;74.00
16846;DHT22;8539;53.188;8.696;2023-02-28T12:53:02;10.10;76.10
16846;DHT22;8539;53.188;8.696;2023-02-28T12:55:40;10.30;76.40
16846;DHT22;8539;53.188;8.696;2023-02-28T13:09:19;9.80;74.10
16846;DHT22;8539;53.188;8.696;2023-02-28T13:11:48;9.90;75.40
16846;DHT22;8539;53.188;8.696;2023-02-28T13:14:36;9.90;75.60
16846;DHT22;8539;53.188;8.696;2023-02-28T13:19:42;10.20;74.90
16846;DHT22;8539;53.188;8.696;2023-02-28T13:24:48;10.20;74.30
16846;DHT22;8539;53.188;8.696;2023-02-28T13:29:42;10.30;73.80
16846;DHT22;8539;53.188;8.696;2023-02-28T13:42:51;10.90;74.20
16846;DHT22;8539;53.188;8.696;2023-02-28T13:45:31;11.00;74.60
16846;DHT22;8539;53.188;8.696;2023-02-28T13:48:18;11.30;76.00
16846;DHT22;8539;53.188;8.696;2023-02-28T13:50:45;11.40;73.00
16846;DHT22;8539;53.188;8.696;2023-02-28T13:53:24;11.50;72.10
16846;DHT22;8539;53.188;8.696;2023-02-28T13:58:46;11.40;71.50
16846;DHT22;8539;53.188;8.696;2023-02-28T14:04:21;10.90;70.40
16846;DHT22;8539;53.188;8.696;2023-02-28T14:06:56;10.50;70.30
16846;DHT22;8539;53.188;8.696;2023-02-28T14:09:39;10.40;70.50
16846;DHT22;8539;53.188;8.696;2023-02-28T14:15:46;10.50;73.00
16846;DHT22;8539;53.188;8.696;2023-02-28T14:20:43;10.50;73.40
16846;DHT22;8539;53.188;8.696;2023-02-28T14:37:29;10.30;71.20
16846;DHT22;8539;53.188;8.696;2023-02-28T14:39:57;10.40;70.80
16846;DHT22;8539;53.188;8.696;2023-02-28T14:42:32;10.40;70.60
16846;DHT22;8539;53.188;8.696;2023-02-28T14:44:59;10.30;71.20
16846;DHT22;8539;53.188;8.696;2023-02-28T14:47:32;10.30;71.50
16846;DHT22;8539;53.188;8.696;2023-02-28T14:49:59;10.30;71.50
16846;DHT22;8539;53.188;8.696;2023-02-28T14:52:27;10.30;71.30
16846;DHT22;8539;53.188;8.696;2023-02-28T14:55:00;10.20;71.10
16846;DHT22;8539;53.188;8.696;2023-02-28T14:57:39;10.20;70.60
16846;DHT22;8539;53.188;8.696;2023-02-28T15:00:24;10.00;70.30
16846;DHT22;8539;53.188;8.696;2023-02-28T15:02:51;9.80;70.70
16846;DHT22;8539;53.188;8.696;2023-02-28T15:05:31;9.70;72.60
16846;DHT22;8539;53.188;8.696;2023-02-28T15:08:16;9.60;73.00
16846;DHT22;8539;53.188;8.696;2023-02-28T15:10:54;9.50;73.40
16846;DHT22;8539;53.188;8.696;2023-02-28T15:13:21;9.20;73.70
16846;DHT22;8539;53.188;8.696;2023-02-28T15:15:56;9.00;74.30
16846;DHT22;8539;53.188;8.696;2023-02-28T15:18:44;8.90;74.40
16846;DHT22;8539;53.188;8.696;2023-02-28T15:23:46;8.50;75.80
16846;DHT22;8539;53.188;8.696;2023-02-28T15:26:15;8.50;76.60
16846;DHT22;8539;53.188;8.696;2023-02-28T15:28:43;8.50;77.10
16846;DHT22;8539;53.188;8.696;2023-02-28T15:34:24;8.40;77.80
16846;DHT22;8539;53.188;8.696;2023-02-28T15:36:52;8.40;78.00
16846;DHT22;8539;53.188;8.696;2023-02-28T15:39:24;8.30;78.20
16846;DHT22;8539;53.188;8.696;2023-02-28T15:41:50;8.30;78.40
16846;DHT22;8539;53.188;8.696;2023-02-28T15:44:27;8.20;78.60
16846;DHT22;8539;53.188;8.696;2023-02-28T15:46:59;8.10;79.10
16846;DHT22;8539;53.188;8.696;2023-02-28T15:49:28;8.00;79.50
16846;DHT22;8539;53.188;8.696;2023-02-28T15:51:58;8.00;80.60
16846;DHT22;8539;53.188;8.696;2023-02-28T15:54:30;8.00;80.90
16846;DHT22;8539;53.188;8.696;2023-02-28T15:57:03;7.80;81.10
16846;DHT22;8539;53.188;8.696;2023-02-28T15:59:35;7.70;81.10
16846;DHT22;8539;53.188;8.696;2023-02-28T16:02:43;7.70;81.30
16846;DHT22;8539;53.188;8.696;2023-02-28T16:07:36;7.50;81.50
16846;DHT22;8539;53.188;8.696;2023-02-28T16:10:03;7.50;81.60
16846;DHT22;8539;53.188;8.696;2023-02-28T16:12:32;7.40;82.10
16846;DHT22;8539;53.188;8.696;2023-02-28T16:15:02;7.30;82.50
16846;DHT22;8539;53.188;8.696;2023-02-28T16:17:33;7.20;82.80
16846;DHT22;8539;53.188;8.696;2023-02-28T16:20:11;7.30;83.40
16846;DHT22;8539;53.188;8.696;2023-02-28T16:22:38;7.10;83.80
16846;DHT22;8539;53.188;8.696;2023-02-28T16:25:05;7.10;84.30
16846;DHT22;8539;53.188;8.696;2023-02-28T16:27:36;6.90;84.60
16846;DHT22;8539;53.188;8.696;2023-02-28T16:30:04;7.00;84.70
16846;DHT22;8539;53.188;8.696;2023-02-28T16:32:34;6.80;84.70
16846;DHT22;8539;53.188;8.696;2023-02-28T16:35:00;6.80;84.50
16846;DHT22;8539;53.188;8.696;2023-02-28T16:37:27;6.80;84.40
16846;DHT22;8539;53.188;8.696;2023-02-28T16:39:53;6.70;84.30
16846;DHT22;8539;53.188;8.696;2023-02-28T16:42:23;6.70;84.30
16846;DHT22;8539;53.188;8.696;2023-02-28T16:44:52;6.40;84.50
16846;DHT22;8539;53.188;8.696;2023-02-28T16:47:19;6.30;84.90
16846;DHT22;8539;53.188;8.696;2023-02-28T16:49:45;6.20;85.40
16846;DHT22;8539;53.188;8.696;2023-02-28T16:52:14;6.00;85.80
16846;DHT22;8539;53.188;8.696;2023-02-28T16:54:41;5.80;87.30
16846;DHT22;8539;53.188;8.696;2023-02-28T16:57:19;5.70;88.60
16846;DHT22;8539;53.188;8.696;2023-02-28T16:59:48;5.50;90.10
16846;DHT22;8539;53.188;8.696;2023-02-28T17:02:18;5.30;91.30
16846;DHT22;8539;53.188;8.696;2023-02-28T17:04:46;5.10;92.00
16846;DHT22;8539;53.188;8.696;2023-02-28T17:07:14;4.80;93.50
16846;DHT22;8539;53.188;8.696;2023-02-28T17:09:42;4.50;94.80
16846;DHT22;8539;53.188;8.696;2023-02-28T17:12:09;4.40;96.10
16846;DHT22;8539;53.188;8.696;2023-02-28T17:14:35;4.10;97.60
16846;DHT22;8539;53.188;8.696;2023-02-28T17:17:01;3.90;98.20
16846;DHT22;8539;53.188;8.696;2023-02-28T17:19:27;3.80;98.80
16846;DHT22;8539;53.188;8.696;2023-02-28T17:21:53;3.50;99.10
16846;DHT22;8539;53.188;8.696;2023-02-28T17:24:19;3.30;99.50
16846;DHT22;8539;53.188;8.696;2023-02-28T17:26:45;3.10;99.60
16846;DHT22;8539;53.188;8.696;2023-02-28T17:29:20;3.10;99.90
16846;DHT22;8539;53.188;8.696;2023-02-28T17:31:47;2.80;99.90
16846;DHT22;8539;53.188;8.696;2023-02-28T17:34:13;2.70;99.90
16846;DHT22;8539;53.188;8.696;2023-02-28T17:36:49;2.60;99.90
16846;DHT22;8539;53.188;8.696;2023-02-28T17:39:16;2.50;99.90
16846;DHT22;8539;53.188;8.696;2023-02-28T17:41:55;2.40;99.90
16846;DHT22;8539;53.188;8.696;2023-02-28T17:44:23;2.20;99.90
16846;DHT22;8539;53.188;8.696;2023-02-28T17:46:54;2.10;99.90
16846;DHT22;8539;53.188;8.696;2023-02-28T17:49:21;2.10;99.90
16846;DHT22;8539;53.188;8.696;2023-02-28T17:51:48;1.90;99.90
16846;DHT22;8539;53.188;8.696;2023-02-28T17:54:15;1.70;99.90
16846;DHT22;8539;53.188;8.696;2023-02-28T17:56:41;1.70;99.90
16846;DHT22;8539;53.188;8.696;2023-02-28T17:59:11;1.50;99.90
16846;DHT22;8539;53.188;8.696;2023-02-28T18:01:38;1.40;99.90
16846;DHT22;8539;53.188;8.696;2023-02-28T18:04:04;1.50;99.90
16846;DHT22;8539;53.188;8.696;2023-02-28T18:06:43;1.30;99.90
16846;DHT22;8539;53.188;8.696;2023-02-28T18:09:14;1.20;99.90
16846;DHT22;8539;53.188;8.696;2023-02-28T18:11:40;1.10;99.90
16846;DHT22;8539;53.188;8.696;2023-02-28T18:14:13;1.10;99.90
16846;DHT22;8539;53.188;8.696;2023-02-28T18:16:40;1.10;99.90
16846;DHT22;8539;53.188;8.696;2023-02-28T18:19:08;0.90;99.90
16846;DHT22;8539;53.188;8.696;2023-02-28T18:21:57;0.90;99.90
16846;DHT22;8539;53.188;8.696;2023-02-28T18:24:24;0.80;99.90
16846;DHT22;8539;53.188;8.696;2023-02-28T18:26:51;0.70;99.90
16846;DHT22;8539;53.188;8.696;2023-02-28T18:29:23;0.60;99.90
16846;DHT22;8539;53.188;8.696;2023-02-28T18:31:51;0.50;99.90
16846;DHT22;8539;53.188;8.696;2023-02-28T18:34:17;0.40;99.90
16846;DHT22;8539;53.188;8.696;2023-02-28T18:36:43;0.40;99.90
16846;DHT22;8539;53.188;8.696;2023-02-28T18:39:11;0.30;99.90
16846;DHT22;8539;53.188;8.696;2023-02-28T18:41:38;0.30;99.90
16846;DHT22;8539;53.188;8.696;2023-02-28T18:44:04;0.20;99.90
16846;DHT22;8539;53.188;8.696;2023-02-28T18:46:30;0.20;99.90
16846;DHT22;8539;53.188;8.696;2023-02-28T18:48:56;0.10;99.90
16846;DHT22;8539;53.188;8.696;2023-02-28T18:51:25;0.10;99.90
16846;DHT22;8539;53.188;8.696;2023-02-28T18:53:51;0.10;99.90
16846;DHT22;8539;53.188;8.696;2023-02-28T18:56:20;-0.10;99.90
16846;DHT22;8539;53.188;8.696;2023-02-28T18:58:48;-0.10;99.90
16846;DHT22;8539;53.188;8.696;2023-02-28T19:01:23;-0.20;99.90
16846;DHT22;8539;53.188;8.696;2023-02-28T19:03:51;-0.20;99.90